sensor_id;sensor_type;location;lat;lon;timestamp;pressure;altitude;pressure_sealevel;temperature;humidity
3968;BME280;9221;42.646;23.380;2024-02-16T00:02:15;95070.78;;;3.77;77.53
3968;BME280;9221;42.646;23.380;2024-02-16T00:04:43;95067.66;;;3.72;77.17
3968;BME280;9221;42.646;23.380;2024-02-16T00:07:12;95071.66;;;3.63;77.63
3968;BME280;9221;42.646;23.380;2024-02-16T00:09:37;95073.19;;;3.53;77.97
3968;BME280;9221;42.646;23.380;2024-02-16T00:12:06;95071.31;;;3.55;78.46
3968;BME280;9221;42.646;23.380;2024-02-16T00:14:31;95073.34;;;3.64;78.26
3968;BME280;9221;42.646;23.380;2024-02-16T00:16:57;95064.84;;;3.75;78.26
3968;BME280;9221;42.646;23.380;2024-02-16T00:19:25;95071.13;;;3.85;77.79
3968;BME280;9221;42.646;23.380;2024-02-16T00:21:54;95072.81;;;3.86;77.79
3968;BME280;9221;42.646;23.380;2024-02-16T00:24:23;95058.97;;;3.71;77.89
3968;BME280;9221;42.646;23.380;2024-02-16T00:26:49;95076.97;;;4.03;77.62
3968;BME280;9221;42.646;23.380;2024-02-16T00:29:17;95080.72;;;3.99;77.62
3968;BME280;9221;42.646;23.380;2024-02-16T00:31:47;95081.44;;;4.01;77.72
3968;BME280;9221;42.646;23.380;2024-02-16T00:34:12;95071.56;;;4.06;77.28
3968;BME280;9221;42.646;23.380;2024-02-16T00:36:41;95075.09;;;4.05;77.48
3968;BME280;9221;42.646;23.380;2024-02-16T00:39:06;95076.28;;;4.14;77.51
3968;BME280;9221;42.646;23.380;2024-02-16T00:41:34;95074.03;;;4.22;77.26
3968;BME280;9221;42.646;23.380;2024-02-16T00:44:00;95066.81;;;4.26;76.79
3968;BME280;9221;42.646;23.380;2024-02-16T00:46:28;95079.25;;;4.35;76.37
3968;BME280;9221;42.646;23.380;2024-02-16T00:48:54;95081.75;;;4.24;76.51
3968;BME280;9221;42.646;23.380;2024-02-16T00:51:22;95073.75;;;4.13;76.96
3968;BME280;9221;42.646;23.380;2024-02-16T00:53:52;95078.69;;;3.90;77.52
3968;BME280;9221;42.646;23.380;2024-02-16T00:56:21;95077.97;;;3.73;78.25
3968;BME280;9221;42.646;23.380;2024-02-16T00:58:46;95081.72;;;3.69;78.74
3968;BME280;9221;42.646;23.380;2024-02-16T01:01:15;95090.28;;;3.71;78.85
3968;BME280;9221;42.646;23.380;2024-02-16T01:03:43;95086.84;;;3.71;78.88
3968;BME280;9221;42.646;23.380;2024-02-16T01:06:09;95078.03;;;3.86;78.67
3968;BME280;9221;42.646;23.380;2024-02-16T01:08:38;95081.06;;;4.07;77.84
3968;BME280;9221;42.646;23.380;2024-02-16T01:11:03;95085.44;;;4.07;77.46
3968;BME280;9221;42.646;23.380;2024-02-16T01:13:36;95084.53;;;3.94;77.95
3968;BME280;9221;42.646;23.380;2024-02-16T01:16:05;95071.66;;;3.63;77.94
3968;BME280;9221;42.646;23.380;2024-02-16T01:18:31;95078.34;;;3.82;78.30
3968;BME280;9221;42.646;23.380;2024-02-16T01:21:00;95066.44;;;3.63;78.62
3968;BME280;9221;42.646;23.380;2024-02-16T01:23:25;95072.31;;;3.67;78.70
3968;BME280;9221;42.646;23.380;2024-02-16T01:25:53;95066.66;;;3.46;79.54
3968;BME280;9221;42.646;23.380;2024-02-16T01:28:19;95069.09;;;3.49;79.11
3968;BME280;9221;42.646;23.380;2024-02-16T01:30:47;95070.22;;;3.30;79.90
3968;BME280;9221;42.646;23.380;2024-02-16T01:33:12;95070.13;;;3.17;80.13
3968;BME280;9221;42.646;23.380;2024-02-16T01:35:41;95063.16;;;3.03;80.69
3968;BME280;9221;42.646;23.380;2024-02-16T01:38:07;95071.72;;;3.05;81.33
3968;BME280;9221;42.646;23.380;2024-02-16T01:40:35;95021.09;;;2.81;81.48
3968;BME280;9221;42.646;23.380;2024-02-16T01:43:01;95072.06;;;3.14;81.34
3968;BME280;9221;42.646;23.380;2024-02-16T01:45:29;95063.88;;;3.05;81.69
3968;BME280;9221;42.646;23.380;2024-02-16T01:47:57;95046.97;;;2.98;81.93
3968;BME280;9221;42.646;23.380;2024-02-16T01:50:27;95063.31;;;3.00;81.67
3968;BME280;9221;42.646;23.380;2024-02-16T01:52:57;95061.38;;;2.90;82.59
3968;BME280;9221;42.646;23.380;2024-02-16T01:55:25;95071.78;;;2.90;82.94
3968;BME280;9221;42.646;23.380;2024-02-16T01:57:51;95059.22;;;2.96;82.69
3968;BME280;9221;42.646;23.380;2024-02-16T02:00:20;95049.94;;;2.92;82.10
3968;BME280;9221;42.646;23.380;2024-02-16T02:02:48;95043.59;;;2.82;81.88
3968;BME280;9221;42.646;23.380;2024-02-16T02:05:14;95054.78;;;2.98;81.18
3968;BME280;9221;42.646;23.380;2024-02-16T02:07:43;95055.88;;;3.09;80.76
3968;BME280;9221;42.646;23.380;2024-02-16T02:10:11;95036.44;;;3.14;80.37
3968;BME280;9221;42.646;23.380;2024-02-16T02:12:45;95046.69;;;3.17;79.82
3968;BME280;9221;42.646;23.380;2024-02-16T02:15:11;95044.72;;;3.07;80.27
3968;BME280;9221;42.646;23.380;2024-02-16T02:17:39;95070.69;;;3.08;80.73
3968;BME280;9221;42.646;23.380;2024-02-16T02:20:08;95048.53;;;2.86;81.25
3968;BME280;9221;42.646;23.380;2024-02-16T02:22:38;95058.66;;;2.77;81.49
3968;BME280;9221;42.646;23.380;2024-02-16T02:25:03;95051.97;;;2.73;81.95
3968;BME280;9221;42.646;23.380;2024-02-16T02:27:32;95043.78;;;2.64;82.05
3968;BME280;9221;42.646;23.380;2024-02-16T02:30:01;95061.84;;;2.96;81.86
3968;BME280;9221;42.646;23.380;2024-02-16T02:32:29;94956.56;;;2.57;81.18
3968;BME280;9221;42.646;23.380;2024-02-16T02:34:55;95052.81;;;3.31;80.56
3968;BME280;9221;42.646;23.380;2024-02-16T02:37:23;95061.28;;;3.34;80.62
3968;BME280;9221;42.646;23.380;2024-02-16T02:39:49;94992.44;;;2.95;80.30
3968;BME280;9221;42.646;23.380;2024-02-16T02:42:17;95044.81;;;3.34;79.92
3968;BME280;9221;42.646;23.380;2024-02-16T02:44:43;95072.22;;;3.54;78.90
3968;BME280;9221;42.646;23.380;2024-02-16T02:47:17;95059.75;;;3.59;78.71
3968;BME280;9221;42.646;23.380;2024-02-16T02:49:45;95045.47;;;3.23;79.60
3968;BME280;9221;42.646;23.380;2024-02-16T02:52:10;95058.31;;;3.12;80.13
3968;BME280;9221;42.646;23.380;2024-02-16T02:54:39;95053.94;;;3.12;80.68
3968;BME280;9221;42.646;23.380;2024-02-16T02:57:04;95043.22;;;3.17;79.94
3968;BME280;9221;42.646;23.380;2024-02-16T02:59:33;95057.38;;;3.27;80.19
3968;BME280;9221;42.646;23.380;2024-02-16T03:01:58;95057.75;;;3.35;79.62
3968;BME280;9221;42.646;23.380;2024-02-16T03:04:27;95076.66;;;3.25;79.21
3968;BME280;9221;42.646;23.380;2024-02-16T03:06:52;95056.16;;;3.04;80.01
3968;BME280;9221;42.646;23.380;2024-02-16T03:09:20;95053.00;;;3.13;80.06
3968;BME280;9221;42.646;23.380;2024-02-16T03:11:50;95058.69;;;3.20;79.53
3968;BME280;9221;42.646;23.380;2024-02-16T03:14:24;95060.72;;;3.00;80.00
3968;BME280;9221;42.646;23.380;2024-02-16T03:16:52;95054.78;;;2.98;80.84
3968;BME280;9221;42.646;23.380;2024-02-16T03:19:18;95058.31;;;2.97;80.84
3968;BME280;9221;42.646;23.380;2024-02-16T03:21:47;95059.59;;;3.04;80.43
3968;BME280;9221;42.646;23.380;2024-02-16T03:24:16;95050.38;;;2.70;80.81
3968;BME280;9221;42.646;23.380;2024-02-16T03:26:41;95048.59;;;2.56;82.25
3968;BME280;9221;42.646;23.380;2024-02-16T03:29:10;95053.75;;;2.72;82.46
3968;BME280;9221;42.646;23.380;2024-02-16T03:31:35;95070.94;;;2.89;81.88
3968;BME280;9221;42.646;23.380;2024-02-16T03:34:04;95057.38;;;3.13;81.25
3968;BME280;9221;42.646;23.380;2024-02-16T03:36:33;95056.25;;;3.31;80.32
3968;BME280;9221;42.646;23.380;2024-02-16T03:38:58;95057.19;;;3.45;79.82
3968;BME280;9221;42.646;23.380;2024-02-16T03:41:27;95049.19;;;3.04;79.20
3968;BME280;9221;42.646;23.380;2024-02-16T03:43:52;95061.84;;;2.96;80.39
3968;BME280;9221;42.646;23.380;2024-02-16T03:46:26;95071.69;;;2.91;80.62
3968;BME280;9221;42.646;23.380;2024-02-16T03:48:54;95060.06;;;2.82;80.68
3968;BME280;9221;42.646;23.380;2024-02-16T03:51:20;95061.66;;;2.85;81.21
3968;BME280;9221;42.646;23.380;2024-02-16T03:53:48;95065.75;;;2.89;81.08
3968;BME280;9221;42.646;23.380;2024-02-16T03:56:23;95063.72;;;2.94;81.10
3968;BME280;9221;42.646;23.380;2024-02-16T03:58:51;95063.72;;;2.94;80.92
3968;BME280;9221;42.646;23.380;2024-02-16T04:01:16;95045.81;;;2.59;80.49
3968;BME280;9221;42.646;23.380;2024-02-16T04:03:42;95059.84;;;2.57;80.94
3968;BME280;9221;42.646;23.380;2024-02-16T04:06:10;95063.25;;;2.43;81.95
3968;BME280;9221;42.646;23.380;2024-02-16T04:08:36;95067.84;;;2.23;82.04
3968;BME280;9221;42.646;23.380;2024-02-16T04:11:04;95061.47;;;2.13;82.61
3968;BME280;9221;42.646;23.380;2024-02-16T04:13:32;95019.97;;;1.95;83.02
3968;BME280;9221;42.646;23.380;2024-02-16T04:15:58;95067.34;;;2.16;82.45
3968;BME280;9221;42.646;23.380;2024-02-16T04:18:27;95060.16;;;2.06;82.95
3968;BME280;9221;42.646;23.380;2024-02-16T04:20:52;95058.66;;;1.85;83.44
3968;BME280;9221;42.646;23.380;2024-02-16T04:23:21;95060.44;;;1.85;83.40
3968;BME280;9221;42.646;23.380;2024-02-16T04:25:46;95062.28;;;1.83;83.59
3968;BME280;9221;42.646;23.380;2024-02-16T04:28:15;95053.88;;;1.94;83.39
3968;BME280;9221;42.646;23.380;2024-02-16T04:30:44;95066.22;;;1.90;83.61
3968;BME280;9221;42.646;23.380;2024-02-16T04:33:10;95057.16;;;1.97;83.33
3968;BME280;9221;42.646;23.380;2024-02-16T04:35:38;95051.84;;;1.99;83.11
3968;BME280;9221;42.646;23.380;2024-02-16T04:38:03;95061.28;;;2.16;83.42
3968;BME280;9221;42.646;23.380;2024-02-16T04:40:36;94953.31;;;1.48;82.88
3968;BME280;9221;42.646;23.380;2024-02-16T04:43:02;95047.56;;;2.14;83.08
3968;BME280;9221;42.646;23.380;2024-02-16T04:45:30;95057.72;;;2.02;82.05
3968;BME280;9221;42.646;23.380;2024-02-16T04:47:56;95084.66;;;2.01;82.17
3968;BME280;9221;42.646;23.380;2024-02-16T04:50:29;95062.34;;;2.13;82.28
3968;BME280;9221;42.646;23.380;2024-02-16T04:52:54;95062.34;;;2.13;82.27
3968;BME280;9221;42.646;23.380;2024-02-16T04:55:23;95061.22;;;2.17;81.69
3968;BME280;9221;42.646;23.380;2024-02-16T04:57:48;95074.69;;;2.24;81.82
3968;BME280;9221;42.646;23.380;2024-02-16T05:00:17;95073.03;;;2.23;82.03
3968;BME280;9221;42.646;23.380;2024-02-16T05:02:42;95063.16;;;2.14;81.56
3968;BME280;9221;42.646;23.380;2024-02-16T05:05:10;95078.88;;;1.96;81.83
3968;BME280;9221;42.646;23.380;2024-02-16T05:07:36;95083.16;;;1.97;82.03
3968;BME280;9221;42.646;23.380;2024-02-16T05:10:09;95029.44;;;1.66;82.11
3968;BME280;9221;42.646;23.380;2024-02-16T05:12:34;95082.97;;;2.00;81.74
3968;BME280;9221;42.646;23.380;2024-02-16T05:15:03;95079.69;;;1.97;82.22
3968;BME280;9221;42.646;23.380;2024-02-16T05:17:29;95087.78;;;1.92;81.32
3968;BME280;9221;42.646;23.380;2024-02-16T05:19:57;95093.75;;;1.78;81.90
3968;BME280;9221;42.646;23.380;2024-02-16T05:22:22;95099.19;;;1.74;82.32
3968;BME280;9221;42.646;23.380;2024-02-16T05:24:51;95097.16;;;1.79;82.76
3968;BME280;9221;42.646;23.380;2024-02-16T05:27:16;95098.59;;;1.84;82.27
3968;BME280;9221;42.646;23.380;2024-02-16T05:29:45;95099.00;;;1.93;82.17
3968;BME280;9221;42.646;23.380;2024-02-16T05:32:13;95104.22;;;1.77;82.93
3968;BME280;9221;42.646;23.380;2024-02-16T05:34:39;95098.63;;;1.68;83.14
3968;BME280;9221;42.646;23.380;2024-02-16T05:37:07;95106.81;;;1.77;83.63
3968;BME280;9221;42.646;23.380;2024-02-16T05:39:36;95061.22;;;1.55;83.20
3968;BME280;9221;42.646;23.380;2024-02-16T05:42:20;95107.06;;;1.88;82.15
3968;BME280;9221;42.646;23.380;2024-02-16T05:44:55;95110.31;;;2.08;82.71
3968;BME280;9221;42.646;23.380;2024-02-16T05:47:20;95115.50;;;2.08;81.75
3968;BME280;9221;42.646;23.380;2024-02-16T05:49:49;95121.06;;;2.17;81.55
3968;BME280;9221;42.646;23.380;2024-02-16T05:52:14;95089.47;;;2.24;81.12
3968;BME280;9221;42.646;23.380;2024-02-16T05:54:52;95101.28;;;2.60;80.97
3968;BME280;9221;42.646;23.380;2024-02-16T05:57:21;95110.75;;;2.77;80.19
3968;BME280;9221;42.646;23.380;2024-02-16T05:59:46;95111.31;;;2.96;79.52
3968;BME280;9221;42.646;23.380;2024-02-16T06:02:15;95129.78;;;3.08;78.80
3968;BME280;9221;42.646;23.380;2024-02-16T06:04:41;95116.75;;;3.08;79.09
3968;BME280;9221;42.646;23.380;2024-02-16T06:07:09;95120.91;;;3.10;79.50
3968;BME280;9221;42.646;23.380;2024-02-16T06:09:39;95114.69;;;3.13;79.73
3968;BME280;9221;42.646;23.380;2024-02-16T06:12:08;95126.06;;;3.26;79.50
3968;BME280;9221;42.646;23.380;2024-02-16T06:14:37;95123.47;;;3.26;79.31
3968;BME280;9221;42.646;23.380;2024-02-16T06:17:06;95122.25;;;3.32;79.67
3968;BME280;9221;42.646;23.380;2024-02-16T06:19:36;95131.09;;;3.29;79.47
3968;BME280;9221;42.646;23.380;2024-02-16T06:22:05;95123.84;;;3.34;79.32
3968;BME280;9221;42.646;23.380;2024-02-16T06:24:30;95138.34;;;3.38;78.80
3968;BME280;9221;42.646;23.380;2024-02-16T06:26:55;95131.09;;;3.44;78.76
3968;BME280;9221;42.646;23.380;2024-02-16T06:29:24;95144.13;;;3.44;79.16
3968;BME280;9221;42.646;23.380;2024-02-16T06:31:52;95127.47;;;3.46;78.94
3968;BME280;9221;42.646;23.380;2024-02-16T06:34:19;95126.97;;;3.54;78.49
3968;BME280;9221;42.646;23.380;2024-02-16T06:36:47;95115.44;;;3.58;77.92
3968;BME280;9221;42.646;23.380;2024-02-16T06:39:12;95134.16;;;3.79;77.89
3968;BME280;9221;42.646;23.380;2024-02-16T06:41:45;95113.22;;;3.66;77.36
3968;BME280;9221;42.646;23.380;2024-02-16T06:44:14;95078.41;;;3.38;76.54
3968;BME280;9221;42.646;23.380;2024-02-16T06:46:40;95128.19;;;3.48;77.57
3968;BME280;9221;42.646;23.380;2024-02-16T06:49:09;95132.56;;;3.62;78.12
3968;BME280;9221;42.646;23.380;2024-02-16T06:51:37;95127.63;;;3.72;77.80
3968;BME280;9221;42.646;23.380;2024-02-16T06:54:03;95127.34;;;3.62;77.77
3968;BME280;9221;42.646;23.380;2024-02-16T06:56:32;95113.38;;;3.78;77.81
3968;BME280;9221;42.646;23.380;2024-02-16T06:59:01;95126.56;;;4.03;77.09
3968;BME280;9221;42.646;23.380;2024-02-16T07:01:26;95127.63;;;4.14;76.92
3968;BME280;9221;42.646;23.380;2024-02-16T07:03:55;95125.34;;;4.36;75.93
3968;BME280;9221;42.646;23.380;2024-02-16T07:06:23;95125.94;;;4.67;75.09
3968;BME280;9221;42.646;23.380;2024-02-16T07:08:48;95108.00;;;4.88;74.85
3968;BME280;9221;42.646;23.380;2024-02-16T07:11:17;95120.16;;;5.28;74.93
3968;BME280;9221;42.646;23.380;2024-02-16T07:13:47;95131.22;;;5.70;74.35
3968;BME280;9221;42.646;23.380;2024-02-16T07:16:12;95104.41;;;5.80;72.44
3968;BME280;9221;42.646;23.380;2024-02-16T07:18:41;95115.84;;;6.16;72.58
3968;BME280;9221;42.646;23.380;2024-02-16T07:21:10;95119.03;;;6.56;70.39
3968;BME280;9221;42.646;23.380;2024-02-16T07:23:39;95122.84;;;6.88;67.60
3968;BME280;9221;42.646;23.380;2024-02-16T07:26:04;95110.50;;;7.01;67.45
3968;BME280;9221;42.646;23.380;2024-02-16T07:28:33;95121.50;;;7.52;65.69
3968;BME280;9221;42.646;23.380;2024-02-16T07:30:58;95114.59;;;7.73;63.85
3968;BME280;9221;42.646;23.380;2024-02-16T07:33:27;95124.84;;;8.22;62.18
3968;BME280;9221;42.646;23.380;2024-02-16T07:35:56;95118.47;;;8.47;61.04
3968;BME280;9221;42.646;23.380;2024-02-16T07:38:22;95117.06;;;8.75;59.83
3968;BME280;9221;42.646;23.380;2024-02-16T07:40:50;95128.28;;;9.20;58.29
3968;BME280;9221;42.646;23.380;2024-02-16T07:43:18;95108.78;;;9.43;56.76
3968;BME280;9221;42.646;23.380;2024-02-16T07:45:44;95102.94;;;9.61;56.29
3968;BME280;9221;42.646;23.380;2024-02-16T07:48:13;95123.84;;;10.03;55.76
3968;BME280;9221;42.646;23.380;2024-02-16T07:50:38;95126.47;;;10.34;54.54
3968;BME280;9221;42.646;23.380;2024-02-16T07:53:07;95129.28;;;10.42;53.42
3968;BME280;9221;42.646;23.380;2024-02-16T07:55:36;95125.69;;;10.82;52.92
3968;BME280;9221;42.646;23.380;2024-02-16T07:58:02;95123.88;;;11.12;51.42
3968;BME280;9221;42.646;23.380;2024-02-16T08:00:30;95128.72;;;11.46;51.49
3968;BME280;9221;42.646;23.380;2024-02-16T08:02:56;95129.34;;;11.68;49.77
3968;BME280;9221;42.646;23.380;2024-02-16T08:05:24;95125.13;;;11.95;49.91
3968;BME280;9221;42.646;23.380;2024-02-16T08:07:53;95136.09;;;12.56;47.63
3968;BME280;9221;42.646;23.380;2024-02-16T08:10:22;95124.38;;;12.94;46.41
3968;BME280;9221;42.646;23.380;2024-02-16T08:12:48;95133.94;;;13.23;44.99
3968;BME280;9221;42.646;23.380;2024-02-16T08:15:16;95132.16;;;12.60;46.85
3968;BME280;9221;42.646;23.380;2024-02-16T08:17:50;95111.28;;;13.29;45.46
3968;BME280;9221;42.646;23.380;2024-02-16T08:20:19;95111.56;;;13.96;43.92
3968;BME280;9221;42.646;23.380;2024-02-16T08:22:48;95133.47;;;14.41;43.33
3968;BME280;9221;42.646;23.380;2024-02-16T08:25:14;95129.63;;;14.78;41.98
3968;BME280;9221;42.646;23.380;2024-02-16T08:27:42;95124.50;;;14.93;42.15
3968;BME280;9221;42.646;23.380;2024-02-16T08:30:08;95126.38;;;15.26;41.35
3968;BME280;9221;42.646;23.380;2024-02-16T08:32:46;95122.03;;;15.49;40.35
3968;BME280;9221;42.646;23.380;2024-02-16T08:35:11;95134.34;;;15.50;40.55
3968;BME280;9221;42.646;23.380;2024-02-16T08:37:40;95132.97;;;15.79;40.02
3968;BME280;9221;42.646;23.380;2024-02-16T08:40:09;95128.03;;;15.60;39.88
3968;BME280;9221;42.646;23.380;2024-02-16T08:42:40;95116.69;;;15.66;40.28
3968;BME280;9221;42.646;23.380;2024-02-16T08:45:08;95127.91;;;16.26;39.24
3968;BME280;9221;42.646;23.380;2024-02-16T08:47:37;95116.91;;;16.29;39.11
3968;BME280;9221;42.646;23.380;2024-02-16T08:50:06;95116.13;;;16.12;39.76
3968;BME280;9221;42.646;23.380;2024-02-16T08:52:32;95118.53;;;15.73;40.08
3968;BME280;9221;42.646;23.380;2024-02-16T08:55:00;95127.16;;;15.92;40.08
3968;BME280;9221;42.646;23.380;2024-02-16T08:57:26;95127.59;;;16.12;39.45
3968;BME280;9221;42.646;23.380;2024-02-16T08:59:54;95110.63;;;16.21;38.92
3968;BME280;9221;42.646;23.380;2024-02-16T09:02:28;95115.75;;;15.42;41.15
3968;BME280;9221;42.646;23.380;2024-02-16T09:04:53;95119.72;;;15.54;41.18
3968;BME280;9221;42.646;23.380;2024-02-16T09:07:22;95127.84;;;15.86;40.72
3968;BME280;9221;42.646;23.380;2024-02-16T09:09:48;95131.19;;;16.28;39.62
3968;BME280;9221;42.646;23.380;2024-02-16T09:12:16;95129.78;;;16.00;39.68
3968;BME280;9221;42.646;23.380;2024-02-16T09:14:41;95135.28;;;16.78;38.08
3968;BME280;9221;42.646;23.380;2024-02-16T09:17:10;95134.47;;;17.32;37.28
3968;BME280;9221;42.646;23.380;2024-02-16T09:19:35;95138.81;;;17.71;36.22
3968;BME280;9221;42.646;23.380;2024-02-16T09:22:04;95133.50;;;17.86;35.60
3968;BME280;9221;42.646;23.380;2024-02-16T09:24:33;95137.91;;;17.41;36.35
3968;BME280;9221;42.646;23.380;2024-02-16T09:26:58;95129.66;;;17.28;37.02
3968;BME280;9221;42.646;23.380;2024-02-16T09:29:36;95141.19;;;17.66;36.54
3968;BME280;9221;42.646;23.380;2024-02-16T09:32:02;95141.34;;;18.03;35.75
3968;BME280;9221;42.646;23.380;2024-02-16T09:34:30;95139.09;;;17.38;36.65
3968;BME280;9221;42.646;23.380;2024-02-16T09:36:56;95132.88;;;17.84;36.20
3968;BME280;9221;42.646;23.380;2024-02-16T09:39:24;95132.06;;;18.14;35.19
3968;BME280;9221;42.646;23.380;2024-02-16T09:41:53;95134.00;;;18.05;35.62
3968;BME280;9221;42.646;23.380;2024-02-16T09:44:26;95140.56;;;18.47;34.61
3968;BME280;9221;42.646;23.380;2024-02-16T09:46:57;95133.28;;;18.11;34.71
3968;BME280;9221;42.646;23.380;2024-02-16T09:49:26;95135.53;;;17.00;36.11
3968;BME280;9221;42.646;23.380;2024-02-16T09:51:54;95113.84;;;17.49;35.74
3968;BME280;9221;42.646;23.380;2024-02-16T09:54:25;95129.97;;;17.71;35.47
3968;BME280;9221;42.646;23.380;2024-02-16T09:56:57;95133.03;;;18.21;34.49
3968;BME280;9221;42.646;23.380;2024-02-16T09:59:23;95134.59;;;18.15;34.94
3968;BME280;9221;42.646;23.380;2024-02-16T10:01:59;95070.75;;;17.22;35.21
3968;BME280;9221;42.646;23.380;2024-02-16T10:04:27;95117.75;;;17.38;35.85
3968;BME280;9221;42.646;23.380;2024-02-16T10:06:56;95116.28;;;17.89;36.03
3968;BME280;9221;42.646;23.380;2024-02-16T10:09:26;95127.47;;;16.45;36.44
3968;BME280;9221;42.646;23.380;2024-02-16T10:11:55;95107.84;;;16.06;38.03
3968;BME280;9221;42.646;23.380;2024-02-16T10:14:24;95094.09;;;17.20;36.07
3968;BME280;9221;42.646;23.380;2024-02-16T10:17:04;95098.03;;;18.31;34.45
3968;BME280;9221;42.646;23.380;2024-02-16T10:19:36;95101.72;;;18.81;33.54
3968;BME280;9221;42.646;23.380;2024-02-16T10:22:14;95100.28;;;18.64;34.12
3968;BME280;9221;42.646;23.380;2024-02-16T10:24:41;95092.59;;;18.39;33.97
3968;BME280;9221;42.646;23.380;2024-02-16T10:27:18;95075.41;;;18.63;33.29
3968;BME280;9221;42.646;23.380;2024-02-16T10:29:47;95084.25;;;18.64;33.95
3968;BME280;9221;42.646;23.380;2024-02-16T10:32:38;95045.84;;;18.86;32.96
3968;BME280;9221;42.646;23.380;2024-02-16T10:35:07;95081.00;;;19.48;32.35
3968;BME280;9221;42.646;23.380;2024-02-16T10:37:39;95077.81;;;19.16;32.24
3968;BME280;9221;42.646;23.380;2024-02-16T10:40:09;95067.44;;;18.70;33.20
3968;BME280;9221;42.646;23.380;2024-02-16T10:42:40;95078.22;;;18.76;32.63
3968;BME280;9221;42.646;23.380;2024-02-16T10:45:09;95073.63;;;18.70;33.04
3968;BME280;9221;42.646;23.380;2024-02-16T10:47:58;95066.41;;;18.49;33.32
3968;BME280;9221;42.646;23.380;2024-02-16T10:50:46;95082.91;;;18.23;33.58
3968;BME280;9221;42.646;23.380;2024-02-16T10:53:28;95059.13;;;17.53;34.93
3968;BME280;9221;42.646;23.380;2024-02-16T10:56:08;95054.34;;;17.11;34.99
3968;BME280;9221;42.646;23.380;2024-02-16T10:58:37;95063.00;;;16.81;35.76
3968;BME280;9221;42.646;23.380;2024-02-16T11:01:15;95063.75;;;16.44;36.55
3968;BME280;9221;42.646;23.380;2024-02-16T11:03:41;95062.13;;;15.95;37.17
3968;BME280;9221;42.646;23.380;2024-02-16T11:06:16;95062.41;;;15.52;38.00
3968;BME280;9221;42.646;23.380;2024-02-16T11:08:48;95047.66;;;15.08;38.95
3968;BME280;9221;42.646;23.380;2024-02-16T11:11:23;95053.94;;;14.66;40.06
3968;BME280;9221;42.646;23.380;2024-02-16T11:13:48;95050.88;;;14.44;41.00
3968;BME280;9221;42.646;23.380;2024-02-16T11:16:17;95049.88;;;14.29;41.46
3968;BME280;9221;42.646;23.380;2024-02-16T11:18:46;95046.53;;;14.27;41.81
3968;BME280;9221;42.646;23.380;2024-02-16T11:21:20;95014.13;;;13.90;42.10
3968;BME280;9221;42.646;23.380;2024-02-16T11:23:49;95046.34;;;13.77;42.39
3968;BME280;9221;42.646;23.380;2024-02-16T11:26:18;95035.66;;;13.61;42.51
3968;BME280;9221;42.646;23.380;2024-02-16T11:28:47;95032.78;;;13.46;42.88
3968;BME280;9221;42.646;23.380;2024-02-16T11:31:13;95055.97;;;13.26;43.89
3968;BME280;9221;42.646;23.380;2024-02-16T11:33:57;95033.53;;;13.38;43.14
3968;BME280;9221;42.646;23.380;2024-02-16T11:36:25;94992.78;;;13.04;43.48
3968;BME280;9221;42.646;23.380;2024-02-16T11:38:51;95036.50;;;13.35;43.79
3968;BME280;9221;42.646;23.380;2024-02-16T11:41:19;95034.38;;;13.12;44.80
3968;BME280;9221;42.646;23.380;2024-02-16T11:43:49;95028.91;;;13.14;45.11
3968;BME280;9221;42.646;23.380;2024-02-16T11:46:17;95025.78;;;13.18;44.80
3968;BME280;9221;42.646;23.380;2024-02-16T11:48:43;94986.88;;;12.93;44.75
3968;BME280;9221;42.646;23.380;2024-02-16T11:51:16;94989.34;;;12.68;45.00
3968;BME280;9221;42.646;23.380;2024-02-16T11:53:55;95013.31;;;12.84;45.10
3968;BME280;9221;42.646;23.380;2024-02-16T11:56:25;95023.47;;;12.35;45.39
3968;BME280;9221;42.646;23.380;2024-02-16T11:58:54;95023.56;;;11.97;46.79
3968;BME280;9221;42.646;23.380;2024-02-16T12:01:20;95017.84;;;12.02;46.93
3968;BME280;9221;42.646;23.380;2024-02-16T12:03:48;94975.72;;;11.63;46.87
3968;BME280;9221;42.646;23.380;2024-02-16T12:06:23;95007.03;;;12.13;47.29
3968;BME280;9221;42.646;23.380;2024-02-16T12:08:51;95012.88;;;12.35;46.89
3968;BME280;9221;42.646;23.380;2024-02-16T12:11:25;94982.78;;;12.00;46.44
3968;BME280;9221;42.646;23.380;2024-02-16T12:13:50;95017.00;;;11.92;47.35
3968;BME280;9221;42.646;23.380;2024-02-16T12:16:19;95011.69;;;11.74;47.90
3968;BME280;9221;42.646;23.380;2024-02-16T12:18:45;95012.19;;;11.87;47.89
3968;BME280;9221;42.646;23.380;2024-02-16T12:21:17;94939.25;;;11.48;47.98
3968;BME280;9221;42.646;23.380;2024-02-16T12:23:47;95000.00;;;12.04;47.62
3968;BME280;9221;42.646;23.380;2024-02-16T12:26:13;94998.34;;;12.03;47.37
3968;BME280;9221;42.646;23.380;2024-02-16T12:28:41;94961.44;;;11.83;47.45
3968;BME280;9221;42.646;23.380;2024-02-16T12:31:10;95001.09;;;12.11;47.43
3968;BME280;9221;42.646;23.380;2024-02-16T12:33:45;94974.34;;;12.14;47.21
3968;BME280;9221;42.646;23.380;2024-02-16T12:36:13;94983.94;;;12.33;46.90
3968;BME280;9221;42.646;23.380;2024-02-16T12:38:43;94992.91;;;12.59;46.66
3968;BME280;9221;42.646;23.380;2024-02-16T12:41:08;94972.28;;;12.62;46.12
3968;BME280;9221;42.646;23.380;2024-02-16T12:43:37;94991.75;;;12.79;46.58
3968;BME280;9221;42.646;23.380;2024-02-16T12:46:02;94986.53;;;12.88;46.99
3968;BME280;9221;42.646;23.380;2024-02-16T12:48:31;94988.63;;;13.02;46.77
3968;BME280;9221;42.646;23.380;2024-02-16T12:50:56;94977.00;;;12.95;46.26
3968;BME280;9221;42.646;23.380;2024-02-16T12:53:25;94982.59;;;12.92;45.53
3968;BME280;9221;42.646;23.380;2024-02-16T12:55:53;94977.78;;;12.69;46.17
3968;BME280;9221;42.646;23.380;2024-02-16T12:58:19;94983.09;;;12.69;46.72
3968;BME280;9221;42.646;23.380;2024-02-16T13:00:44;94992.19;;;12.48;47.22
3968;BME280;9221;42.646;23.380;2024-02-16T13:03:23;94986.81;;;12.40;47.13
3968;BME280;9221;42.646;23.380;2024-02-16T13:05:51;94975.53;;;12.38;47.39
3968;BME280;9221;42.646;23.380;2024-02-16T13:08:17;94971.91;;;12.39;47.39
3968;BME280;9221;42.646;23.380;2024-02-16T13:10:45;94982.03;;;12.62;46.71
3968;BME280;9221;42.646;23.380;2024-02-16T13:13:10;94975.00;;;12.70;46.47
3968;BME280;9221;42.646;23.380;2024-02-16T13:15:39;94948.50;;;12.44;46.63
3968;BME280;9221;42.646;23.380;2024-02-16T13:18:14;94985.03;;;12.67;46.52
3968;BME280;9221;42.646;23.380;2024-02-16T13:20:43;94988.81;;;12.82;46.66
3968;BME280;9221;42.646;23.380;2024-02-16T13:23:12;94976.63;;;12.90;46.26
3968;BME280;9221;42.646;23.380;2024-02-16T13:25:37;94981.25;;;12.88;46.99